sensor_id;sensor_type;location;lat;lon;timestamp;temperature;humidity
43651;DHT22;29247;50.944;5.382;2023-07-30T00:00:50;19.30;86.20
43651;DHT22;29247;50.944;5.382;2023-07-30T00:03:16;19.30;86.20
43651;DHT22;29247;50.944;5.382;2023-07-30T00:05:56;19.40;86.10
43651;DHT22;29247;50.944;5.382;2023-07-30T00:08:24;19.40;86.20
43651;DHT22;29247;50.944;5.382;2023-07-30T00:10:50;19.40;86.10
43651;DHT22;29247;50.944;5.382;2023-07-30T00:13:16;19.40;85.70
43651;DHT22;29247;50.944;5.382;2023-07-30T00:15:44;19.40;85.90
43651;DHT22;29247;50.944;5.382;2023-07-30T00:18:13;19.40;85.90
43651;DHT22;29247;50.944;5.382;2023-07-30T00:20:39;19.40;85.90
43651;DHT22;29247;50.944;5.382;2023-07-30T00:23:06;19.40;85.80
43651;DHT22;29247;50.944;5.382;2023-07-30T00:25:32;19.40;85.70
43651;DHT22;29247;50.944;5.382;2023-07-30T00:27:58;19.40;85.60
43651;DHT22;29247;50.944;5.382;2023-07-30T00:30:26;19.40;85.70
43651;DHT22;29247;50.944;5.382;2023-07-30T00:32:51;19.40;85.70
43651;DHT22;29247;50.944;5.382;2023-07-30T00:35:19;19.40;85.60
43651;DHT22;29247;50.944;5.382;2023-07-30T00:37:45;19.40;85.60
43651;DHT22;29247;50.944;5.382;2023-07-30T00:40:11;19.40;85.60
43651;DHT22;29247;50.944;5.382;2023-07-30T00:42:37;19.40;85.30
43651;DHT22;29247;50.944;5.382;2023-07-30T00:45:06;19.40;85.30
43651;DHT22;29247;50.944;5.382;2023-07-30T00:47:31;19.40;85.20
43651;DHT22;29247;50.944;5.382;2023-07-30T00:50:00;19.30;85.30
43651;DHT22;29247;50.944;5.382;2023-07-30T00:52:26;19.30;85.30
43651;DHT22;29247;50.944;5.382;2023-07-30T00:54:52;19.30;86.20
43651;DHT22;29247;50.944;5.382;2023-07-30T00:57:19;19.30;85.30
43651;DHT22;29247;50.944;5.382;2023-07-30T00:59:49;19.30;85.30
43651;DHT22;29247;50.944;5.382;2023-07-30T01:02:15;19.20;85.10
43651;DHT22;29247;50.944;5.382;2023-07-30T01:04:44;19.20;85.10
43651;DHT22;29247;50.944;5.382;2023-07-30T01:07:12;19.20;85.20
43651;DHT22;29247;50.944;5.382;2023-07-30T01:09:38;19.20;85.10
43651;DHT22;29247;50.944;5.382;2023-07-30T01:12:07;19.10;85.00
43651;DHT22;29247;50.944;5.382;2023-07-30T01:14:33;19.10;85.10
43651;DHT22;29247;50.944;5.382;2023-07-30T01:17:00;19.10;85.30
43651;DHT22;29247;50.944;5.382;2023-07-30T01:19:30;19.10;85.10
43651;DHT22;29247;50.944;5.382;2023-07-30T01:21:56;19.10;85.20
43651;DHT22;29247;50.944;5.382;2023-07-30T01:24:23;19.10;85.20
43651;DHT22;29247;50.944;5.382;2023-07-30T01:27:12;19.10;85.30
43651;DHT22;29247;50.944;5.382;2023-07-30T01:29:51;19.00;85.50
43651;DHT22;29247;50.944;5.382;2023-07-30T01:32:26;19.00;85.80
43651;DHT22;29247;50.944;5.382;2023-07-30T01:34:54;19.00;86.20
43651;DHT22;29247;50.944;5.382;2023-07-30T01:37:30;18.90;85.90
43651;DHT22;29247;50.944;5.382;2023-07-30T01:39:56;18.90;86.30
43651;DHT22;29247;50.944;5.382;2023-07-30T01:42:28;18.90;86.30
43651;DHT22;29247;50.944;5.382;2023-07-30T01:44:53;18.90;86.50
43651;DHT22;29247;50.944;5.382;2023-07-30T01:47:21;18.90;86.60
43651;DHT22;29247;50.944;5.382;2023-07-30T01:49:52;18.90;86.40
43651;DHT22;29247;50.944;5.382;2023-07-30T01:52:17;18.90;86.50
43651;DHT22;29247;50.944;5.382;2023-07-30T01:54:43;18.90;86.30
43651;DHT22;29247;50.944;5.382;2023-07-30T01:57:11;18.90;86.30
43651;DHT22;29247;50.944;5.382;2023-07-30T01:59:39;18.90;86.00
43651;DHT22;29247;50.944;5.382;2023-07-30T02:02:04;18.90;86.10
43651;DHT22;29247;50.944;5.382;2023-07-30T02:04:30;18.90;86.10
43651;DHT22;29247;50.944;5.382;2023-07-30T02:06:56;18.90;86.10
43651;DHT22;29247;50.944;5.382;2023-07-30T02:09:21;18.90;86.10
43651;DHT22;29247;50.944;5.382;2023-07-30T02:11:49;18.90;86.00
43651;DHT22;29247;50.944;5.382;2023-07-30T02:14:15;18.90;86.00
43651;DHT22;29247;50.944;5.382;2023-07-30T02:16:40;18.90;86.10
43651;DHT22;29247;50.944;5.382;2023-07-30T02:19:09;18.90;86.10
43651;DHT22;29247;50.944;5.382;2023-07-30T02:21:34;18.90;86.90
43651;DHT22;29247;50.944;5.382;2023-07-30T02:24:02;18.90;86.20
43651;DHT22;29247;50.944;5.382;2023-07-30T02:26:38;18.90;86.30
43651;DHT22;29247;50.944;5.382;2023-07-30T02:29:06;18.90;86.30
43651;DHT22;29247;50.944;5.382;2023-07-30T02:31:35;18.80;86.30
43651;DHT22;29247;50.944;5.382;2023-07-30T02:34:03;18.90;86.60
43651;DHT22;29247;50.944;5.382;2023-07-30T02:36:35;18.80;86.80
43651;DHT22;29247;50.944;5.382;2023-07-30T02:39:03;18.90;87.00
43651;DHT22;29247;50.944;5.382;2023-07-30T02:41:28;18.90;87.00
43651;DHT22;29247;50.944;5.382;2023-07-30T02:43:56;18.90;87.10
43651;DHT22;29247;50.944;5.382;2023-07-30T02:46:22;18.90;87.20
43651;DHT22;29247;50.944;5.382;2023-07-30T02:48:50;18.90;87.30
43651;DHT22;29247;50.944;5.382;2023-07-30T02:51:16;18.90;87.50
43651;DHT22;29247;50.944;5.382;2023-07-30T02:53:46;18.90;87.60
43651;DHT22;29247;50.944;5.382;2023-07-30T02:56:14;18.90;87.70
43651;DHT22;29247;50.944;5.382;2023-07-30T02:58:39;18.90;87.50
43651;DHT22;29247;50.944;5.382;2023-07-30T03:01:06;18.90;87.60
43651;DHT22;29247;50.944;5.382;2023-07-30T03:03:32;18.90;87.80
43651;DHT22;29247;50.944;5.382;2023-07-30T03:05:58;18.80;87.60
43651;DHT22;29247;50.944;5.382;2023-07-30T03:08:26;18.80;87.70
43651;DHT22;29247;50.944;5.382;2023-07-30T03:10:51;18.80;87.80
43651;DHT22;29247;50.944;5.382;2023-07-30T03:13:19;18.80;87.80
43651;DHT22;29247;50.944;5.382;2023-07-30T03:15:49;18.80;87.70
43651;DHT22;29247;50.944;5.382;2023-07-30T03:18:15;18.80;87.80
43651;DHT22;29247;50.944;5.382;2023-07-30T03:20:41;18.70;87.70
43651;DHT22;29247;50.944;5.382;2023-07-30T03:23:06;18.70;87.70
43651;DHT22;29247;50.944;5.382;2023-07-30T03:25:34;18.60;87.70
43651;DHT22;29247;50.944;5.382;2023-07-30T03:28:00;18.60;87.80
43651;DHT22;29247;50.944;5.382;2023-07-30T03:30:25;18.60;87.90
43651;DHT22;29247;50.944;5.382;2023-07-30T03:32:51;18.60;88.00
43651;DHT22;29247;50.944;5.382;2023-07-30T03:35:17;18.60;88.10
43651;DHT22;29247;50.944;5.382;2023-07-30T03:37:42;18.60;88.00
43651;DHT22;29247;50.944;5.382;2023-07-30T03:40:08;18.50;88.00
43651;DHT22;29247;50.944;5.382;2023-07-30T03:42:36;18.50;88.00
43651;DHT22;29247;50.944;5.382;2023-07-30T03:45:05;18.50;88.00
43651;DHT22;29247;50.944;5.382;2023-07-30T03:47:33;18.50;87.90
43651;DHT22;29247;50.944;5.382;2023-07-30T03:49:59;18.50;87.90
43651;DHT22;29247;50.944;5.382;2023-07-30T03:52:24;18.50;87.80
43651;DHT22;29247;50.944;5.382;2023-07-30T03:54:50;18.40;87.80
43651;DHT22;29247;50.944;5.382;2023-07-30T03:57:20;18.40;87.80
43651;DHT22;29247;50.944;5.382;2023-07-30T03:59:46;18.40;87.70
43651;DHT22;29247;50.944;5.382;2023-07-30T04:02:13;18.40;87.80
43651;DHT22;29247;50.944;5.382;2023-07-30T04:04:44;18.30;87.80
43651;DHT22;29247;50.944;5.382;2023-07-30T04:07:11;18.30;87.70
43651;DHT22;29247;50.944;5.382;2023-07-30T04:09:37;18.30;88.20
43651;DHT22;29247;50.944;5.382;2023-07-30T04:12:05;18.30;87.40
43651;DHT22;29247;50.944;5.382;2023-07-30T04:14:31;18.20;87.30
43651;DHT22;29247;50.944;5.382;2023-07-30T04:16:57;18.20;87.20
43651;DHT22;29247;50.944;5.382;2023-07-30T04:19:25;18.20;87.30
43651;DHT22;29247;50.944;5.382;2023-07-30T04:21:50;18.20;87.50
43651;DHT22;29247;50.944;5.382;2023-07-30T04:24:16;18.20;87.50
43651;DHT22;29247;50.944;5.382;2023-07-30T04:26:42;18.20;88.40
43651;DHT22;29247;50.944;5.382;2023-07-30T04:29:07;18.20;87.60
43651;DHT22;29247;50.944;5.382;2023-07-30T04:31:35;18.20;87.70
43651;DHT22;29247;50.944;5.382;2023-07-30T04:34:03;18.10;87.70
43651;DHT22;29247;50.944;5.382;2023-07-30T04:36:31;18.20;87.60
43651;DHT22;29247;50.944;5.382;2023-07-30T04:38:57;18.10;87.60
43651;DHT22;29247;50.944;5.382;2023-07-30T04:41:22;18.20;87.80
43651;DHT22;29247;50.944;5.382;2023-07-30T04:43:48;18.10;87.80
43651;DHT22;29247;50.944;5.382;2023-07-30T04:46:16;18.10;87.90
43651;DHT22;29247;50.944;5.382;2023-07-30T04:48:42;18.10;87.80
43651;DHT22;29247;50.944;5.382;2023-07-30T04:51:07;18.10;87.90
43651;DHT22;29247;50.944;5.382;2023-07-30T04:53:33;18.10;87.90
43651;DHT22;29247;50.944;5.382;2023-07-30T04:55:59;18.10;88.00
43651;DHT22;29247;50.944;5.382;2023-07-30T04:58:24;18.10;88.20
43651;DHT22;29247;50.944;5.382;2023-07-30T05:00:52;18.20;88.20
43651;DHT22;29247;50.944;5.382;2023-07-30T05:03:18;18.10;88.40
43651;DHT22;29247;50.944;5.382;2023-07-30T05:05:44;18.20;88.50
43651;DHT22;29247;50.944;5.382;2023-07-30T05:08:09;18.20;88.50
43651;DHT22;29247;50.944;5.382;2023-07-30T05:10:39;18.20;88.70
43651;DHT22;29247;50.944;5.382;2023-07-30T05:13:07;18.20;88.70
43651;DHT22;29247;50.944;5.382;2023-07-30T05:15:38;18.20;88.80
43651;DHT22;29247;50.944;5.382;2023-07-30T05:18:04;18.20;88.90
43651;DHT22;29247;50.944;5.382;2023-07-30T05:20:29;18.20;89.00
43651;DHT22;29247;50.944;5.382;2023-07-30T05:22:55;18.20;89.10
43651;DHT22;29247;50.944;5.382;2023-07-30T05:25:21;18.20;89.20
43651;DHT22;29247;50.944;5.382;2023-07-30T05:27:46;18.30;89.30
43651;DHT22;29247;50.944;5.382;2023-07-30T05:30:14;18.30;89.50
43651;DHT22;29247;50.944;5.382;2023-07-30T05:32:42;18.30;89.40
43651;DHT22;29247;50.944;5.382;2023-07-30T05:35:10;18.30;89.20
43651;DHT22;29247;50.944;5.382;2023-07-30T05:37:38;18.30;89.30
43651;DHT22;29247;50.944;5.382;2023-07-30T05:40:04;18.30;89.50
43651;DHT22;29247;50.944;5.382;2023-07-30T05:42:30;18.30;89.80
43651;DHT22;29247;50.944;5.382;2023-07-30T05:44:58;18.30;89.80
43651;DHT22;29247;50.944;5.382;2023-07-30T05:47:24;18.30;89.80
43651;DHT22;29247;50.944;5.382;2023-07-30T05:49:49;18.30;90.00
43651;DHT22;29247;50.944;5.382;2023-07-30T05:52:15;18.40;90.00
43651;DHT22;29247;50.944;5.382;2023-07-30T05:54:41;18.40;90.00
43651;DHT22;29247;50.944;5.382;2023-07-30T05:57:09;18.40;90.00
43651;DHT22;29247;50.944;5.382;2023-07-30T05:59:34;18.50;90.00
43651;DHT22;29247;50.944;5.382;2023-07-30T06:02:02;18.50;90.00
43651;DHT22;29247;50.944;5.382;2023-07-30T06:04:30;18.50;90.10
43651;DHT22;29247;50.944;5.382;2023-07-30T06:06:59;18.60;90.00
43651;DHT22;29247;50.944;5.382;2023-07-30T06:09:27;18.50;89.90
43651;DHT22;29247;50.944;5.382;2023-07-30T06:11:53;18.60;90.00
43651;DHT22;29247;50.944;5.382;2023-07-30T06:14:18;18.60;90.00
43651;DHT22;29247;50.944;5.382;2023-07-30T06:16:46;18.60;90.00
43651;DHT22;29247;50.944;5.382;2023-07-30T06:19:14;18.60;90.00
43651;DHT22;29247;50.944;5.382;2023-07-30T06:21:44;18.70;90.00
43651;DHT22;29247;50.944;5.382;2023-07-30T06:24:12;18.70;89.90
43651;DHT22;29247;50.944;5.382;2023-07-30T06:26:37;18.70;90.00
43651;DHT22;29247;50.944;5.382;2023-07-30T06:29:03;18.70;90.00
43651;DHT22;29247;50.944;5.382;2023-07-30T06:31:29;18.70;90.00
43651;DHT22;29247;50.944;5.382;2023-07-30T06:33:55;18.70;90.00
43651;DHT22;29247;50.944;5.382;2023-07-30T06:36:21;18.70;90.00
43651;DHT22;29247;50.944;5.382;2023-07-30T06:38:46;18.70;90.00
43651;DHT22;29247;50.944;5.382;2023-07-30T06:41:12;18.70;90.00
43651;DHT22;29247;50.944;5.382;2023-07-30T06:43:38;18.70;89.90
43651;DHT22;29247;50.944;5.382;2023-07-30T06:46:04;18.70;89.80
43651;DHT22;29247;50.944;5.382;2023-07-30T06:48:32;18.80;90.00
43651;DHT22;29247;50.944;5.382;2023-07-30T06:50:57;18.80;90.00
43651;DHT22;29247;50.944;5.382;2023-07-30T06:53:25;18.80;90.00
43651;DHT22;29247;50.944;5.382;2023-07-30T06:55:51;18.80;90.30
43651;DHT22;29247;50.944;5.382;2023-07-30T06:58:19;18.90;90.00
43651;DHT22;29247;50.944;5.382;2023-07-30T07:00:44;18.90;90.00
43651;DHT22;29247;50.944;5.382;2023-07-30T07:03:12;18.90;90.00
43651;DHT22;29247;50.944;5.382;2023-07-30T07:05:38;18.90;90.00
43651;DHT22;29247;50.944;5.382;2023-07-30T07:08:06;19.00;90.00
43651;DHT22;29247;50.944;5.382;2023-07-30T07:10:32;19.00;89.90
43651;DHT22;29247;50.944;5.382;2023-07-30T07:12:57;19.00;89.70
43651;DHT22;29247;50.944;5.382;2023-07-30T07:15:23;19.00;89.70
43651;DHT22;29247;50.944;5.382;2023-07-30T07:17:51;19.00;89.80
43651;DHT22;29247;50.944;5.382;2023-07-30T07:20:16;19.10;89.50
43651;DHT22;29247;50.944;5.382;2023-07-30T07:22:43;19.10;89.60
43651;DHT22;29247;50.944;5.382;2023-07-30T07:25:09;19.10;89.60
43651;DHT22;29247;50.944;5.382;2023-07-30T07:27:35;19.10;89.50
43651;DHT22;29247;50.944;5.382;2023-07-30T07:30:01;19.10;89.40
43651;DHT22;29247;50.944;5.382;2023-07-30T07:32:27;19.10;89.50
43651;DHT22;29247;50.944;5.382;2023-07-30T07:34:52;19.10;89.70
43651;DHT22;29247;50.944;5.382;2023-07-30T07:37:18;19.10;89.80
43651;DHT22;29247;50.944;5.382;2023-07-30T07:39:46;19.20;89.70
43651;DHT22;29247;50.944;5.382;2023-07-30T07:42:15;19.20;90.10
43651;DHT22;29247;50.944;5.382;2023-07-30T07:44:43;19.30;90.40
43651;DHT22;29247;50.944;5.382;2023-07-30T07:47:13;19.50;90.70
43651;DHT22;29247;50.944;5.382;2023-07-30T07:49:39;19.80;91.10
43651;DHT22;29247;50.944;5.382;2023-07-30T07:52:05;20.00;90.10
43651;DHT22;29247;50.944;5.382;2023-07-30T07:54:34;20.10;89.00
43651;DHT22;29247;50.944;5.382;2023-07-30T07:57:00;20.20;88.40
43651;DHT22;29247;50.944;5.382;2023-07-30T07:59:28;20.30;87.00
43651;DHT22;29247;50.944;5.382;2023-07-30T08:01:53;20.30;86.10
43651;DHT22;29247;50.944;5.382;2023-07-30T08:04:19;20.30;86.00
43651;DHT22;29247;50.944;5.382;2023-07-30T08:06:47;20.40;85.80
43651;DHT22;29247;50.944;5.382;2023-07-30T08:09:13;20.40;85.30
43651;DHT22;29247;50.944;5.382;2023-07-30T08:11:40;20.40;85.00
43651;DHT22;29247;50.944;5.382;2023-07-30T08:14:08;20.50;84.90
43651;DHT22;29247;50.944;5.382;2023-07-30T08:16:34;20.40;84.60
43651;DHT22;29247;50.944;5.382;2023-07-30T08:19:00;20.50;84.60
43651;DHT22;29247;50.944;5.382;2023-07-30T08:21:25;20.60;84.40
43651;DHT22;29247;50.944;5.382;2023-07-30T08:23:53;20.60;84.50
43651;DHT22;29247;50.944;5.382;2023-07-30T08:26:21;20.70;84.50
43651;DHT22;29247;50.944;5.382;2023-07-30T08:28:46;20.80;84.20
43651;DHT22;29247;50.944;5.382;2023-07-30T08:31:12;20.90;83.40
43651;DHT22;29247;50.944;5.382;2023-07-30T08:33:38;21.00;82.20
43651;DHT22;29247;50.944;5.382;2023-07-30T08:36:08;21.00;81.60
43651;DHT22;29247;50.944;5.382;2023-07-30T08:38:33;21.00;81.60
43651;DHT22;29247;50.944;5.382;2023-07-30T08:40:59;21.10;81.50
43651;DHT22;29247;50.944;5.382;2023-07-30T08:43:27;21.10;81.50
43651;DHT22;29247;50.944;5.382;2023-07-30T08:45:55;21.10;81.50
43651;DHT22;29247;50.944;5.382;2023-07-30T08:48:21;21.20;81.50
43651;DHT22;29247;50.944;5.382;2023-07-30T08:50:48;21.30;80.40
43651;DHT22;29247;50.944;5.382;2023-07-30T08:53:15;21.30;79.60
43651;DHT22;29247;50.944;5.382;2023-07-30T08:55:40;21.30;80.90
43651;DHT22;29247;50.944;5.382;2023-07-30T08:58:07;21.40;80.50
43651;DHT22;29247;50.944;5.382;2023-07-30T09:00:40;21.40;79.60
43651;DHT22;29247;50.944;5.382;2023-07-30T09:03:07;21.40;79.20
43651;DHT22;29247;50.944;5.382;2023-07-30T09:05:33;21.40;79.20
43651;DHT22;29247;50.944;5.382;2023-07-30T09:07:59;21.40;79.30
43651;DHT22;29247;50.944;5.382;2023-07-30T09:10:27;21.30;79.00
43651;DHT22;29247;50.944;5.382;2023-07-30T09:12:55;21.30;78.60
43651;DHT22;29247;50.944;5.382;2023-07-30T09:15:30;21.30;78.40
43651;DHT22;29247;50.944;5.382;2023-07-30T09:17:56;21.30;78.30
43651;DHT22;29247;50.944;5.382;2023-07-30T09:20:22;21.30;78.80
43651;DHT22;29247;50.944;5.382;2023-07-30T09:22:50;21.40;78.50
43651;DHT22;29247;50.944;5.382;2023-07-30T09:25:20;21.40;77.80
43651;DHT22;29247;50.944;5.382;2023-07-30T09:27:52;21.30;77.50
43651;DHT22;29247;50.944;5.382;2023-07-30T09:30:22;21.30;77.20
43651;DHT22;29247;50.944;5.382;2023-07-30T09:32:53;21.20;76.50
43651;DHT22;29247;50.944;5.382;2023-07-30T09:35:29;21.10;76.80
43651;DHT22;29247;50.944;5.382;2023-07-30T09:38:02;21.10;77.10
43651;DHT22;29247;50.944;5.382;2023-07-30T09:40:35;21.10;77.50
43651;DHT22;29247;50.944;5.382;2023-07-30T09:43:03;21.00;76.90
43651;DHT22;29247;50.944;5.382;2023-07-30T09:45:28;21.00;77.00
43651;DHT22;29247;50.944;5.382;2023-07-30T09:47:58;21.00;77.20
43651;DHT22;29247;50.944;5.382;2023-07-30T09:50:26;21.10;76.80
43651;DHT22;29247;50.944;5.382;2023-07-30T09:52:58;21.00;76.50
43651;DHT22;29247;50.944;5.382;2023-07-30T09:55:24;21.00;76.50
43651;DHT22;29247;50.944;5.382;2023-07-30T09:57:49;21.00;77.00
43651;DHT22;29247;50.944;5.382;2023-07-30T10:00:15;21.00;78.30
43651;DHT22;29247;50.944;5.382;2023-07-30T10:02:46;21.00;77.80
43651;DHT22;29247;50.944;5.382;2023-07-30T10:05:17;21.00;77.90
43651;DHT22;29247;50.944;5.382;2023-07-30T10:08:08;20.90;77.70
43651;DHT22;29247;50.944;5.382;2023-07-30T10:10:37;20.90;78.00
43651;DHT22;29247;50.944;5.382;2023-07-30T10:13:08;20.80;78.30
43651;DHT22;29247;50.944;5.382;2023-07-30T10:15:38;20.80;79.20
43651;DHT22;29247;50.944;5.382;2023-07-30T10:18:04;20.70;79.60
43651;DHT22;29247;50.944;5.382;2023-07-30T10:20:32;20.60;80.00
43651;DHT22;29247;50.944;5.382;2023-07-30T10:22:59;20.50;79.90
43651;DHT22;29247;50.944;5.382;2023-07-30T10:25:53;20.40;79.90
43651;DHT22;29247;50.944;5.382;2023-07-30T10:30:58;20.30;80.50
43651;DHT22;29247;50.944;5.382;2023-07-30T10:36:14;20.10;80.30
43651;DHT22;29247;50.944;5.382;2023-07-30T10:38:41;20.10;80.60
43651;DHT22;29247;50.944;5.382;2023-07-30T10:41:15;20.00;81.00
43651;DHT22;29247;50.944;5.382;2023-07-30T10:43:48;20.00;81.80
43651;DHT22;29247;50.944;5.382;2023-07-30T10:46:16;19.90;82.50
43651;DHT22;29247;50.944;5.382;2023-07-30T10:48:46;19.90;82.90
43651;DHT22;29247;50.944;5.382;2023-07-30T10:51:20;19.90;83.30
43651;DHT22;29247;50.944;5.382;2023-07-30T10:53:48;19.90;83.70
43651;DHT22;29247;50.944;5.382;2023-07-30T10:56:22;19.90;84.30
43651;DHT22;29247;50.944;5.382;2023-07-30T10:58:52;19.90;84.10
43651;DHT22;29247;50.944;5.382;2023-07-30T11:01:24;19.90;84.30
43651;DHT22;29247;50.944;5.382;2023-07-30T11:03:51;20.00;84.60
43651;DHT22;29247;50.944;5.382;2023-07-30T11:06:22;20.00;84.60
43651;DHT22;29247;50.944;5.382;2023-07-30T11:08:48;20.00;84.70
43651;DHT22;29247;50.944;5.382;2023-07-30T11:11:14;20.10;84.60
43651;DHT22;29247;50.944;5.382;2023-07-30T11:13:41;20.00;84.70
43651;DHT22;29247;50.944;5.382;2023-07-30T11:16:10;20.00;84.40
43651;DHT22;29247;50.944;5.382;2023-07-30T11:18:39;19.90;84.20
43651;DHT22;29247;50.944;5.382;2023-07-30T11:21:13;19.80;84.30
43651;DHT22;29247;50.944;5.382;2023-07-30T11:23:41;19.80;84.40
43651;DHT22;29247;50.944;5.382;2023-07-30T11:26:08;19.70;84.90
43651;DHT22;29247;50.944;5.382;2023-07-30T11:28:41;19.70;85.30
43651;DHT22;29247;50.944;5.382;2023-07-30T11:31:11;19.80;86.60
43651;DHT22;29247;50.944;5.382;2023-07-30T11:33:41;19.90;87.30
43651;DHT22;29247;50.944;5.382;2023-07-30T11:36:09;20.00;88.10
43651;DHT22;29247;50.944;5.382;2023-07-30T11:38:35;20.10;88.60
43651;DHT22;29247;50.944;5.382;2023-07-30T11:41:02;20.30;89.00
43651;DHT22;29247;50.944;5.382;2023-07-30T11:43:31;20.40;89.20
43651;DHT22;29247;50.944;5.382;2023-07-30T11:46:17;20.50;89.00
43651;DHT22;29247;50.944;5.382;2023-07-30T11:48:46;20.60;87.90
43651;DHT22;29247;50.944;5.382;2023-07-30T11:51:29;20.70;87.80
43651;DHT22;29247;50.944;5.382;2023-07-30T11:53:55;20.80;87.90
43651;DHT22;29247;50.944;5.382;2023-07-30T11:56:23;20.90;87.10
43651;DHT22;29247;50.944;5.382;2023-07-30T11:58:56;20.90;86.40
43651;DHT22;29247;50.944;5.382;2023-07-30T12:01:23;21.00;86.10
43651;DHT22;29247;50.944;5.382;2023-07-30T12:03:49;20.90;84.70
43651;DHT22;29247;50.944;5.382;2023-07-30T12:06:17;20.90;84.30
43651;DHT22;29247;50.944;5.382;2023-07-30T12:08:43;20.90;84.20
43651;DHT22;29247;50.944;5.382;2023-07-30T12:11:13;21.00;84.00
43651;DHT22;29247;50.944;5.382;2023-07-30T12:13:42;21.00;83.20
43651;DHT22;29247;50.944;5.382;2023-07-30T12:16:10;21.00;82.70
43651;DHT22;29247;50.944;5.382;2023-07-30T12:18:39;21.00;81.90
43651;DHT22;29247;50.944;5.382;2023-07-30T12:21:05;21.00;81.20
43651;DHT22;29247;50.944;5.382;2023-07-30T12:23:33;21.00;81.00
43651;DHT22;29247;50.944;5.382;2023-07-30T12:25:59;21.10;81.00
43651;DHT22;29247;50.944;5.382;2023-07-30T12:28:25;21.20;80.30
43651;DHT22;29247;50.944;5.382;2023-07-30T12:30:50;21.30;80.20
43651;DHT22;29247;50.944;5.382;2023-07-30T12:33:16;21.30;79.30
43651;DHT22;29247;50.944;5.382;2023-07-30T12:35:42;21.40;78.90
43651;DHT22;29247;50.944;5.382;2023-07-30T12:38:08;21.50;78.80
43651;DHT22;29247;50.944;5.382;2023-07-30T12:40:34;21.50;78.00
43651;DHT22;29247;50.944;5.382;2023-07-30T12:43:05;21.60;77.10
43651;DHT22;29247;50.944;5.382;2023-07-30T12:45:31;21.60;76.20
43651;DHT22;29247;50.944;5.382;2023-07-30T12:47:57;21.70;75.50
43651;DHT22;29247;50.944;5.382;2023-07-30T12:50:25;21.70;75.30
43651;DHT22;29247;50.944;5.382;2023-07-30T12:52:52;21.80;76.10
43651;DHT22;29247;50.944;5.382;2023-07-30T12:55:21;22.00;76.20
43651;DHT22;29247;50.944;5.382;2023-07-30T12:57:48;22.10;76.30
43651;DHT22;29247;50.944;5.382;2023-07-30T13:00:15;22.20;75.90
43651;DHT22;29247;50.944;5.382;2023-07-30T13:02:43;22.30;75.50
43651;DHT22;29247;50.944;5.382;2023-07-30T13:05:13;22.50;74.40
43651;DHT22;29247;50.944;5.382;2023-07-30T13:07:46;22.60;73.70
43651;DHT22;29247;50.944;5.382;2023-07-30T13:10:14;22.60;71.70
43651;DHT22;29247;50.944;5.382;2023-07-30T13:12:40;22.60;70.90
43651;DHT22;29247;50.944;5.382;2023-07-30T13:15:06;22.50;70.20
43651;DHT22;29247;50.944;5.382;2023-07-30T13:17:32;22.50;70.10
43651;DHT22;29247;50.944;5.382;2023-07-30T13:19:58;22.40;70.30
43651;DHT22;29247;50.944;5.382;2023-07-30T13:22:23;22.30;69.10
43651;DHT22;29247;50.944;5.382;2023-07-30T13:24:49;22.30;69.50
43651;DHT22;29247;50.944;5.382;2023-07-30T13:27:18;22.40;69.90
43651;DHT22;29247;50.944;5.382;2023-07-30T13:29:46;22.50;70.30
43651;DHT22;29247;50.944;5.382;2023-07-30T13:32:16;22.50;69.00
43651;DHT22;29247;50.944;5.382;2023-07-30T13:34:41;22.50;69.60
43651;DHT22;29247;50.944;5.382;2023-07-30T13:37:09;22.50;69.60
43651;DHT22;29247;50.944;5.382;2023-07-30T13:39:35;22.60;69.30
43651;DHT22;29247;50.944;5.382;2023-07-30T13:42:01;22.70;69.30
43651;DHT22;29247;50.944;5.382;2023-07-30T13:44:26;22.70;68.80
43651;DHT22;29247;50.944;5.382;2023-07-30T13:46:52;22.80;68.20
43651;DHT22;29247;50.944;5.382;2023-07-30T13:49:19;22.80;67.80
43651;DHT22;29247;50.944;5.382;2023-07-30T13:51:45;22.80;67.60
43651;DHT22;29247;50.944;5.382;2023-07-30T13:54:10;22.80;68.10
43651;DHT22;29247;50.944;5.382;2023-07-30T13:56:36;22.90;68.10
43651;DHT22;29247;50.944;5.382;2023-07-30T13:59:06;22.90;67.30
43651;DHT22;29247;50.944;5.382;2023-07-30T14:01:32;22.90;66.20
43651;DHT22;29247;50.944;5.382;2023-07-30T14:03:59;22.90;65.40
43651;DHT22;29247;50.944;5.382;2023-07-30T14:06:27;22.80;65.50
43651;DHT22;29247;50.944;5.382;2023-07-30T14:08:58;22.80;65.90
43651;DHT22;29247;50.944;5.382;2023-07-30T14:11:28;22.80;66.20
43651;DHT22;29247;50.944;5.382;2023-07-30T14:13:55;22.80;66.20
43651;DHT22;29247;50.944;5.382;2023-07-30T14:16:23;22.90;65.60
43651;DHT22;29247;50.944;5.382;2023-07-30T14:18:49;22.90;65.30
43651;DHT22;29247;50.944;5.382;2023-07-30T14:21:15;22.80;64.40
43651;DHT22;29247;50.944;5.382;2023-07-30T14:23:43;22.70;64.10
43651;DHT22;29247;50.944;5.382;2023-07-30T14:26:09;22.70;64.40
43651;DHT22;29247;50.944;5.382;2023-07-30T14:28:37;22.80;64.50
43651;DHT22;29247;50.944;5.382;2023-07-30T14:31:03;22.80;64.50
43651;DHT22;29247;50.944;5.382;2023-07-30T14:33:28;22.80;64.20
43651;DHT22;29247;50.944;5.382;2023-07-30T14:35:56;22.80;64.40
43651;DHT22;29247;50.944;5.382;2023-07-30T14:38:22;22.90;64.40
43651;DHT22;29247;50.944;5.382;2023-07-30T14:40:50;22.90;63.00
43651;DHT22;29247;50.944;5.382;2023-07-30T14:43:16;23.00;62.90
43651;DHT22;29247;50.944;5.382;2023-07-30T14:45:41;23.10;61.70
43651;DHT22;29247;50.944;5.382;2023-07-30T14:48:07;23.10;61.60
43651;DHT22;29247;50.944;5.382;2023-07-30T14:50:33;23.20;61.40
43651;DHT22;29247;50.944;5.382;2023-07-30T14:52:58;23.20;61.00
43651;DHT22;29247;50.944;5.382;2023-07-30T14:55:24;23.20;60.50
43651;DHT22;29247;50.944;5.382;2023-07-30T14:57:52;23.20;59.60
43651;DHT22;29247;50.944;5.382;2023-07-30T15:00:20;23.20;59.20
43651;DHT22;29247;50.944;5.382;2023-07-30T15:02:48;23.20;59.60
43651;DHT22;29247;50.944;5.382;2023-07-30T15:05:16;23.30;59.10
43651;DHT22;29247;50.944;5.382;2023-07-30T15:07:41;23.20;58.80
43651;DHT22;29247;50.944;5.382;2023-07-30T15:10:07;23.20;59.30
43651;DHT22;29247;50.944;5.382;2023-07-30T15:12:35;23.20;59.20
43651;DHT22;29247;50.944;5.382;2023-07-30T15:15:02;23.20;58.90
43651;DHT22;29247;50.944;5.382;2023-07-30T15:17:27;23.10;58.80
43651;DHT22;29247;50.944;5.382;2023-07-30T15:19:53;23.10;58.50
43651;DHT22;29247;50.944;5.382;2023-07-30T15:22:20;23.00;58.70
43651;DHT22;29247;50.944;5.382;2023-07-30T15:24:45;23.00;58.10
43651;DHT22;29247;50.944;5.382;2023-07-30T15:27:11;22.90;58.20
43651;DHT22;29247;50.944;5.382;2023-07-30T15:29:36;22.90;58.20
43651;DHT22;29247;50.944;5.382;2023-07-30T15:32:02;22.80;58.40
43651;DHT22;29247;50.944;5.382;2023-07-30T15:34:28;22.80;58.70
43651;DHT22;29247;50.944;5.382;2023-07-30T15:36:54;22.80;58.90